sensor_id;sensor_type;location;lat;lon;timestamp;temperature;humidity
21616;DHT22;10970;48.714;9.584;2022-12-10T00:00:50;1.90;99.90
21616;DHT22;10970;48.714;9.584;2022-12-10T00:03:15;1.90;99.90
21616;DHT22;10970;48.714;9.584;2022-12-10T00:05:41;1.90;99.90
21616;DHT22;10970;48.714;9.584;2022-12-10T00:08:07;1.90;99.90
21616;DHT22;10970;48.714;9.584;2022-12-10T00:10:32;1.90;99.90
21616;DHT22;10970;48.714;9.584;2022-12-10T00:12:58;1.90;99.90
21616;DHT22;10970;48.714;9.584;2022-12-10T00:15:23;1.90;99.90
21616;DHT22;10970;48.714;9.584;2022-12-10T00:17:49;1.80;99.90
21616;DHT22;10970;48.714;9.584;2022-12-10T00:20:15;1.80;99.90
21616;DHT22;10970;48.714;9.584;2022-12-10T00:22:40;1.80;99.90
21616;DHT22;10970;48.714;9.584;2022-12-10T00:25:06;1.70;99.90
21616;DHT22;10970;48.714;9.584;2022-12-10T00:27:32;1.70;99.90
21616;DHT22;10970;48.714;9.584;2022-12-10T00:29:57;1.60;99.90
21616;DHT22;10970;48.714;9.584;2022-12-10T00:32:23;1.60;99.90
21616;DHT22;10970;48.714;9.584;2022-12-10T00:34:48;1.50;99.90
21616;DHT22;10970;48.714;9.584;2022-12-10T00:37:14;1.50;99.90
21616;DHT22;10970;48.714;9.584;2022-12-10T00:39:40;1.50;99.90
21616;DHT22;10970;48.714;9.584;2022-12-10T00:42:05;1.50;99.90
21616;DHT22;10970;48.714;9.584;2022-12-10T00:44:31;1.50;99.90
21616;DHT22;10970;48.714;9.584;2022-12-10T00:46:57;1.50;99.90
21616;DHT22;10970;48.714;9.584;2022-12-10T00:49:22;1.50;99.90
21616;DHT22;10970;48.714;9.584;2022-12-10T00:51:49;1.50;99.90
21616;DHT22;10970;48.714;9.584;2022-12-10T00:54:15;1.60;99.90
21616;DHT22;10970;48.714;9.584;2022-12-10T00:56:41;1.60;99.90
21616;DHT22;10970;48.714;9.584;2022-12-10T00:59:06;1.60;99.90
21616;DHT22;10970;48.714;9.584;2022-12-10T01:01:37;1.70;99.90
21616;DHT22;10970;48.714;9.584;2022-12-10T01:04:06;1.70;99.90
21616;DHT22;10970;48.714;9.584;2022-12-10T01:06:35;1.70;99.90
21616;DHT22;10970;48.714;9.584;2022-12-10T01:09:04;1.60;99.90
21616;DHT22;10970;48.714;9.584;2022-12-10T01:11:34;1.50;99.90
21616;DHT22;10970;48.714;9.584;2022-12-10T01:14:00;1.50;99.90
21616;DHT22;10970;48.714;9.584;2022-12-10T01:16:27;1.60;99.90
21616;DHT22;10970;48.714;9.584;2022-12-10T01:18:54;1.50;99.90
21616;DHT22;10970;48.714;9.584;2022-12-10T01:21:20;1.50;99.90
21616;DHT22;10970;48.714;9.584;2022-12-10T01:23:49;1.60;99.90
21616;DHT22;10970;48.714;9.584;2022-12-10T01:26:17;1.50;99.90
21616;DHT22;10970;48.714;9.584;2022-12-10T01:28:43;1.50;99.90
21616;DHT22;10970;48.714;9.584;2022-12-10T01:31:18;1.50;99.90
21616;DHT22;10970;48.714;9.584;2022-12-10T01:33:44;1.50;99.90
21616;DHT22;10970;48.714;9.584;2022-12-10T01:38:43;1.50;99.90
21616;DHT22;10970;48.714;9.584;2022-12-10T01:41:16;1.40;99.90
21616;DHT22;10970;48.714;9.584;2022-12-10T01:43:55;1.50;99.90
21616;DHT22;10970;48.714;9.584;2022-12-10T01:46:23;1.50;99.90
21616;DHT22;10970;48.714;9.584;2022-12-10T01:48:50;1.50;99.90
21616;DHT22;10970;48.714;9.584;2022-12-10T01:51:16;1.50;99.90
21616;DHT22;10970;48.714;9.584;2022-12-10T01:53:42;1.50;99.90
21616;DHT22;10970;48.714;9.584;2022-12-10T01:56:12;1.50;99.90
21616;DHT22;10970;48.714;9.584;2022-12-10T01:58:38;1.60;99.90
21616;DHT22;10970;48.714;9.584;2022-12-10T02:01:11;1.60;99.90
21616;DHT22;10970;48.714;9.584;2022-12-10T02:04:04;1.70;99.90
21616;DHT22;10970;48.714;9.584;2022-12-10T02:13:27;1.50;99.90
21616;DHT22;10970;48.714;9.584;2022-12-10T02:15:38;1.60;99.90
21616;DHT22;10970;48.714;9.584;2022-12-10T02:18:31;1.60;99.90
21616;DHT22;10970;48.714;9.584;2022-12-10T02:20:57;1.60;99.90
21616;DHT22;10970;48.714;9.584;2022-12-10T02:23:30;1.60;99.90
21616;DHT22;10970;48.714;9.584;2022-12-10T02:26:19;1.50;99.90
21616;DHT22;10970;48.714;9.584;2022-12-10T02:31:15;1.50;99.90
21616;DHT22;10970;48.714;9.584;2022-12-10T02:33:46;1.50;99.90
21616;DHT22;10970;48.714;9.584;2022-12-10T02:36:14;1.50;99.90
21616;DHT22;10970;48.714;9.584;2022-12-10T02:38:41;1.50;99.90
21616;DHT22;10970;48.714;9.584;2022-12-10T02:41:17;1.50;99.90
21616;DHT22;10970;48.714;9.584;2022-12-10T02:43:45;1.50;99.90
21616;DHT22;10970;48.714;9.584;2022-12-10T02:46:13;1.40;99.90
21616;DHT22;10970;48.714;9.584;2022-12-10T02:48:40;1.40;99.90
21616;DHT22;10970;48.714;9.584;2022-12-10T02:51:06;1.40;99.90
21616;DHT22;10970;48.714;9.584;2022-12-10T02:53:31;1.50;99.90
21616;DHT22;10970;48.714;9.584;2022-12-10T03:04:21;1.40;99.90
21616;DHT22;10970;48.714;9.584;2022-12-10T03:06:54;1.40;99.90
21616;DHT22;10970;48.714;9.584;2022-12-10T03:09:45;1.40;99.90
21616;DHT22;10970;48.714;9.584;2022-12-10T03:14:47;1.40;99.90
21616;DHT22;10970;48.714;9.584;2022-12-10T03:17:13;1.40;99.90
21616;DHT22;10970;48.714;9.584;2022-12-10T03:19:43;1.40;99.90
21616;DHT22;10970;48.714;9.584;2022-12-10T03:22:11;1.40;99.90
21616;DHT22;10970;48.714;9.584;2022-12-10T03:24:38;1.40;99.90
21616;DHT22;10970;48.714;9.584;2022-12-10T03:27:06;1.40;99.90
21616;DHT22;10970;48.714;9.584;2022-12-10T03:29:41;1.40;99.90
21616;DHT22;10970;48.714;9.584;2022-12-10T03:32:09;1.40;99.90
21616;DHT22;10970;48.714;9.584;2022-12-10T03:34:36;1.40;99.90
21616;DHT22;10970;48.714;9.584;2022-12-10T03:37:03;1.30;99.90
21616;DHT22;10970;48.714;9.584;2022-12-10T03:39:29;1.40;99.90
21616;DHT22;10970;48.714;9.584;2022-12-10T03:41:55;1.40;99.90
21616;DHT22;10970;48.714;9.584;2022-12-10T03:44:29;1.40;99.90
21616;DHT22;10970;48.714;9.584;2022-12-10T03:46:55;1.30;99.90
21616;DHT22;10970;48.714;9.584;2022-12-10T03:49:20;1.30;99.90
21616;DHT22;10970;48.714;9.584;2022-12-10T03:51:46;1.30;99.90
21616;DHT22;10970;48.714;9.584;2022-12-10T03:54:11;1.30;99.90
21616;DHT22;10970;48.714;9.584;2022-12-10T03:56:37;1.20;99.90
21616;DHT22;10970;48.714;9.584;2022-12-10T03:59:03;1.20;99.90
21616;DHT22;10970;48.714;9.584;2022-12-10T04:01:29;1.10;99.90
21616;DHT22;10970;48.714;9.584;2022-12-10T04:03:54;1.20;99.90
21616;DHT22;10970;48.714;9.584;2022-12-10T04:06:20;1.20;99.90
21616;DHT22;10970;48.714;9.584;2022-12-10T04:08:47;1.20;99.90
21616;DHT22;10970;48.714;9.584;2022-12-10T04:11:13;1.10;99.90
21616;DHT22;10970;48.714;9.584;2022-12-10T04:13:39;1.10;99.90
21616;DHT22;10970;48.714;9.584;2022-12-10T04:16:25;1.20;99.90
21616;DHT22;10970;48.714;9.584;2022-12-10T04:18:58;1.20;99.90
21616;DHT22;10970;48.714;9.584;2022-12-10T04:21:25;1.20;99.90
21616;DHT22;10970;48.714;9.584;2022-12-10T04:24:10;1.20;99.90
21616;DHT22;10970;48.714;9.584;2022-12-10T04:26:56;1.20;99.90
21616;DHT22;10970;48.714;9.584;2022-12-10T04:29:31;1.20;99.90
21616;DHT22;10970;48.714;9.584;2022-12-10T04:31:57;1.20;99.90
21616;DHT22;10970;48.714;9.584;2022-12-10T04:34:23;1.30;99.90
21616;DHT22;10970;48.714;9.584;2022-12-10T04:36:49;1.30;99.90
21616;DHT22;10970;48.714;9.584;2022-12-10T04:39:16;1.30;99.90
21616;DHT22;10970;48.714;9.584;2022-12-10T04:41:43;1.30;99.90
21616;DHT22;10970;48.714;9.584;2022-12-10T04:44:09;1.30;99.90
21616;DHT22;10970;48.714;9.584;2022-12-10T04:46:36;1.30;99.90
21616;DHT22;10970;48.714;9.584;2022-12-10T04:49:02;1.40;99.90
21616;DHT22;10970;48.714;9.584;2022-12-10T04:51:28;1.30;99.90
21616;DHT22;10970;48.714;9.584;2022-12-10T04:53:54;1.40;99.90
21616;DHT22;10970;48.714;9.584;2022-12-10T04:56:20;1.30;99.90
21616;DHT22;10970;48.714;9.584;2022-12-10T04:58:45;1.30;99.90
21616;DHT22;10970;48.714;9.584;2022-12-10T05:01:11;1.30;99.90
21616;DHT22;10970;48.714;9.584;2022-12-10T05:03:38;1.30;99.90
21616;DHT22;10970;48.714;9.584;2022-12-10T05:06:09;1.30;99.90
21616;DHT22;10970;48.714;9.584;2022-12-10T05:08:36;1.30;99.90
21616;DHT22;10970;48.714;9.584;2022-12-10T05:11:13;1.40;99.90
21616;DHT22;10970;48.714;9.584;2022-12-10T05:13:40;1.50;99.90
21616;DHT22;10970;48.714;9.584;2022-12-10T05:16:07;1.50;99.90
21616;DHT22;10970;48.714;9.584;2022-12-10T05:18:34;1.50;99.90
21616;DHT22;10970;48.714;9.584;2022-12-10T05:21:02;1.40;99.90
21616;DHT22;10970;48.714;9.584;2022-12-10T05:23:28;1.50;99.90
21616;DHT22;10970;48.714;9.584;2022-12-10T05:26:03;1.40;99.90
21616;DHT22;10970;48.714;9.584;2022-12-10T05:28:31;1.40;99.90
21616;DHT22;10970;48.714;9.584;2022-12-10T05:30:57;1.50;99.90
21616;DHT22;10970;48.714;9.584;2022-12-10T05:33:24;1.50;99.90
21616;DHT22;10970;48.714;9.584;2022-12-10T05:36:09;1.50;99.90
21616;DHT22;10970;48.714;9.584;2022-12-10T05:38:35;1.40;99.90
21616;DHT22;10970;48.714;9.584;2022-12-10T05:41:06;1.40;99.90
21616;DHT22;10970;48.714;9.584;2022-12-10T05:43:32;1.40;99.90
21616;DHT22;10970;48.714;9.584;2022-12-10T05:46:06;1.40;99.90
21616;DHT22;10970;48.714;9.584;2022-12-10T05:48:33;1.40;99.90
21616;DHT22;10970;48.714;9.584;2022-12-10T05:51:07;1.40;99.90
21616;DHT22;10970;48.714;9.584;2022-12-10T05:53:33;1.40;99.90
21616;DHT22;10970;48.714;9.584;2022-12-10T05:56:03;1.40;99.90
21616;DHT22;10970;48.714;9.584;2022-12-10T05:58:30;1.40;99.90
21616;DHT22;10970;48.714;9.584;2022-12-10T06:00:56;1.30;99.90
21616;DHT22;10970;48.714;9.584;2022-12-10T06:03:22;1.30;99.90
21616;DHT22;10970;48.714;9.584;2022-12-10T06:05:48;1.30;99.90
21616;DHT22;10970;48.714;9.584;2022-12-10T06:08:13;1.30;99.90
21616;DHT22;10970;48.714;9.584;2022-12-10T06:10:39;1.30;99.90
21616;DHT22;10970;48.714;9.584;2022-12-10T06:13:04;1.30;99.90
21616;DHT22;10970;48.714;9.584;2022-12-10T06:15:31;1.30;99.90
21616;DHT22;10970;48.714;9.584;2022-12-10T06:17:58;1.30;99.90
21616;DHT22;10970;48.714;9.584;2022-12-10T06:20:25;1.30;99.90
21616;DHT22;10970;48.714;9.584;2022-12-10T06:22:51;1.40;99.90
21616;DHT22;10970;48.714;9.584;2022-12-10T06:25:17;1.40;99.90
21616;DHT22;10970;48.714;9.584;2022-12-10T06:27:43;1.40;99.90
21616;DHT22;10970;48.714;9.584;2022-12-10T06:30:10;1.40;99.90
21616;DHT22;10970;48.714;9.584;2022-12-10T06:32:36;1.40;99.90
21616;DHT22;10970;48.714;9.584;2022-12-10T06:35:04;1.40;99.90
21616;DHT22;10970;48.714;9.584;2022-12-10T06:37:30;1.40;99.90
21616;DHT22;10970;48.714;9.584;2022-12-10T06:39:56;1.40;99.90
21616;DHT22;10970;48.714;9.584;2022-12-10T06:42:22;1.40;99.90
21616;DHT22;10970;48.714;9.584;2022-12-10T06:44:47;1.50;99.90
21616;DHT22;10970;48.714;9.584;2022-12-10T06:47:13;1.50;99.90
21616;DHT22;10970;48.714;9.584;2022-12-10T06:49:40;1.50;99.90
21616;DHT22;10970;48.714;9.584;2022-12-10T06:52:06;1.50;99.90
21616;DHT22;10970;48.714;9.584;2022-12-10T06:54:32;1.50;99.90
21616;DHT22;10970;48.714;9.584;2022-12-10T06:56:58;1.60;99.90
21616;DHT22;10970;48.714;9.584;2022-12-10T06:59:24;1.60;99.90
21616;DHT22;10970;48.714;9.584;2022-12-10T07:01:49;1.60;99.90
21616;DHT22;10970;48.714;9.584;2022-12-10T07:04:16;1.50;99.90
21616;DHT22;10970;48.714;9.584;2022-12-10T07:06:41;1.50;99.90
21616;DHT22;10970;48.714;9.584;2022-12-10T07:09:07;1.50;99.90
21616;DHT22;10970;48.714;9.584;2022-12-10T07:11:33;1.60;99.90
21616;DHT22;10970;48.714;9.584;2022-12-10T07:13:59;1.60;99.90
21616;DHT22;10970;48.714;9.584;2022-12-10T07:16:30;1.50;99.90
21616;DHT22;10970;48.714;9.584;2022-12-10T07:18:58;1.50;99.90
21616;DHT22;10970;48.714;9.584;2022-12-10T07:21:27;1.50;99.90
21616;DHT22;10970;48.714;9.584;2022-12-10T07:23:55;1.50;99.90
21616;DHT22;10970;48.714;9.584;2022-12-10T07:26:27;1.50;99.90
21616;DHT22;10970;48.714;9.584;2022-12-10T07:28:53;1.50;99.90
21616;DHT22;10970;48.714;9.584;2022-12-10T07:31:19;1.50;99.90
21616;DHT22;10970;48.714;9.584;2022-12-10T07:33:45;1.50;99.90
21616;DHT22;10970;48.714;9.584;2022-12-10T07:36:12;1.50;99.90
21616;DHT22;10970;48.714;9.584;2022-12-10T07:38:38;1.50;99.90
21616;DHT22;10970;48.714;9.584;2022-12-10T07:41:05;1.50;99.90
21616;DHT22;10970;48.714;9.584;2022-12-10T07:43:34;1.60;99.90
21616;DHT22;10970;48.714;9.584;2022-12-10T07:46:08;1.60;99.90
21616;DHT22;10970;48.714;9.584;2022-12-10T07:48:35;1.60;99.90
21616;DHT22;10970;48.714;9.584;2022-12-10T07:51:01;1.60;99.90
21616;DHT22;10970;48.714;9.584;2022-12-10T07:53:27;1.70;99.90
21616;DHT22;10970;48.714;9.584;2022-12-10T07:55:53;1.80;99.90
21616;DHT22;10970;48.714;9.584;2022-12-10T07:58:18;1.70;99.90
21616;DHT22;10970;48.714;9.584;2022-12-10T08:00:44;1.80;99.90
21616;DHT22;10970;48.714;9.584;2022-12-10T08:03:09;1.80;99.90
21616;DHT22;10970;48.714;9.584;2022-12-10T08:05:35;1.80;99.90
21616;DHT22;10970;48.714;9.584;2022-12-10T08:08:01;1.80;99.90
21616;DHT22;10970;48.714;9.584;2022-12-10T08:10:27;1.90;99.90
21616;DHT22;10970;48.714;9.584;2022-12-10T08:12:52;1.90;99.90
21616;DHT22;10970;48.714;9.584;2022-12-10T08:15:18;1.90;99.90
21616;DHT22;10970;48.714;9.584;2022-12-10T08:17:43;1.90;99.90
21616;DHT22;10970;48.714;9.584;2022-12-10T08:20:09;2.00;99.90
21616;DHT22;10970;48.714;9.584;2022-12-10T08:22:35;2.10;99.90
21616;DHT22;10970;48.714;9.584;2022-12-10T08:25:01;2.10;99.90
21616;DHT22;10970;48.714;9.584;2022-12-10T08:27:27;2.10;99.90
21616;DHT22;10970;48.714;9.584;2022-12-10T08:29:52;2.20;99.90
21616;DHT22;10970;48.714;9.584;2022-12-10T08:32:18;2.20;99.90
21616;DHT22;10970;48.714;9.584;2022-12-10T08:34:44;2.20;99.90
21616;DHT22;10970;48.714;9.584;2022-12-10T08:37:10;2.20;99.90
21616;DHT22;10970;48.714;9.584;2022-12-10T08:39:35;2.30;99.90
21616;DHT22;10970;48.714;9.584;2022-12-10T08:42:01;2.30;99.90
21616;DHT22;10970;48.714;9.584;2022-12-10T08:44:27;2.40;99.90
21616;DHT22;10970;48.714;9.584;2022-12-10T08:46:52;2.50;99.90
21616;DHT22;10970;48.714;9.584;2022-12-10T08:49:18;2.40;99.90
21616;DHT22;10970;48.714;9.584;2022-12-10T08:51:44;2.40;99.90
21616;DHT22;10970;48.714;9.584;2022-12-10T08:54:09;2.40;99.90
21616;DHT22;10970;48.714;9.584;2022-12-10T08:56:35;2.40;99.90
21616;DHT22;10970;48.714;9.584;2022-12-10T08:59:01;2.40;99.90
21616;DHT22;10970;48.714;9.584;2022-12-10T09:01:26;2.40;99.90
21616;DHT22;10970;48.714;9.584;2022-12-10T09:03:52;2.60;99.90
21616;DHT22;10970;48.714;9.584;2022-12-10T09:06:20;2.60;99.90
21616;DHT22;10970;48.714;9.584;2022-12-10T09:08:47;2.50;99.90
21616;DHT22;10970;48.714;9.584;2022-12-10T09:11:18;2.40;99.90
21616;DHT22;10970;48.714;9.584;2022-12-10T09:13:44;2.30;99.90
21616;DHT22;10970;48.714;9.584;2022-12-10T09:16:10;2.20;99.90
21616;DHT22;10970;48.714;9.584;2022-12-10T09:18:36;2.30;99.90
21616;DHT22;10970;48.714;9.584;2022-12-10T09:21:06;2.30;99.90
21616;DHT22;10970;48.714;9.584;2022-12-10T09:23:32;2.40;99.90
21616;DHT22;10970;48.714;9.584;2022-12-10T09:25:58;2.60;99.90
21616;DHT22;10970;48.714;9.584;2022-12-10T09:28:24;2.70;99.90
21616;DHT22;10970;48.714;9.584;2022-12-10T09:31:00;2.70;99.90
21616;DHT22;10970;48.714;9.584;2022-12-10T09:33:27;2.70;99.90
21616;DHT22;10970;48.714;9.584;2022-12-10T09:35:53;2.70;99.90
21616;DHT22;10970;48.714;9.584;2022-12-10T09:38:19;2.80;99.90
21616;DHT22;10970;48.714;9.584;2022-12-10T09:41:02;2.80;99.90
21616;DHT22;10970;48.714;9.584;2022-12-10T09:47:09;2.80;99.90
21616;DHT22;10970;48.714;9.584;2022-12-10T09:49:40;2.90;99.90
21616;DHT22;10970;48.714;9.584;2022-12-10T09:52:19;2.90;99.90
21616;DHT22;10970;48.714;9.584;2022-12-10T09:54:57;2.80;99.90
21616;DHT22;10970;48.714;9.584;2022-12-10T09:57:36;3.00;99.90
21616;DHT22;10970;48.714;9.584;2022-12-10T10:00:30;3.10;99.90
21616;DHT22;10970;48.714;9.584;2022-12-10T10:02:59;2.80;99.90
21616;DHT22;10970;48.714;9.584;2022-12-10T10:05:28;2.90;99.90
21616;DHT22;10970;48.714;9.584;2022-12-10T10:07:56;3.00;99.90
21616;DHT22;10970;48.714;9.584;2022-12-10T10:13:23;3.00;99.90
21616;DHT22;10970;48.714;9.584;2022-12-10T10:15:52;3.00;99.90
21616;DHT22;10970;48.714;9.584;2022-12-10T10:18:36;3.10;99.90
21616;DHT22;10970;48.714;9.584;2022-12-10T10:21:22;3.30;99.90
21616;DHT22;10970;48.714;9.584;2022-12-10T10:23:49;3.40;99.90
21616;DHT22;10970;48.714;9.584;2022-12-10T10:26:15;2.70;99.90
21616;DHT22;10970;48.714;9.584;2022-12-10T10:28:41;3.20;99.90
21616;DHT22;10970;48.714;9.584;2022-12-10T10:31:23;3.20;99.90
21616;DHT22;10970;48.714;9.584;2022-12-10T10:33:55;3.10;99.90
21616;DHT22;10970;48.714;9.584;2022-12-10T10:36:34;3.20;99.90
21616;DHT22;10970;48.714;9.584;2022-12-10T10:41:52;3.20;99.90
21616;DHT22;10970;48.714;9.584;2022-12-10T10:44:23;3.20;99.90
21616;DHT22;10970;48.714;9.584;2022-12-10T10:46:54;3.20;99.90
21616;DHT22;10970;48.714;9.584;2022-12-10T10:51:50;3.10;99.90
21616;DHT22;10970;48.714;9.584;2022-12-10T10:57:08;3.10;99.90
21616;DHT22;10970;48.714;9.584;2022-12-10T10:59:36;3.10;99.90
21616;DHT22;10970;48.714;9.584;2022-12-10T11:04:54;3.30;99.90
21616;DHT22;10970;48.714;9.584;2022-12-10T11:07:39;3.20;99.90
21616;DHT22;10970;48.714;9.584;2022-12-10T11:10:22;3.30;99.90
21616;DHT22;10970;48.714;9.584;2022-12-10T11:13:06;3.30;99.90
21616;DHT22;10970;48.714;9.584;2022-12-10T11:15:37;3.10;99.90
21616;DHT22;10970;48.714;9.584;2022-12-10T11:21:05;3.20;99.90
21616;DHT22;10970;48.714;9.584;2022-12-10T11:23:37;3.20;99.90
21616;DHT22;10970;48.714;9.584;2022-12-10T11:40:02;3.00;99.90
21616;DHT22;10970;48.714;9.584;2022-12-10T11:50:37;3.30;99.90
21616;DHT22;10970;48.714;9.584;2022-12-10T12:03:57;3.40;99.90
21616;DHT22;10970;48.714;9.584;2022-12-10T12:18:59;3.10;99.90
21616;DHT22;10970;48.714;9.584;2022-12-10T12:20:57;3.10;99.90
21616;DHT22;10970;48.714;9.584;2022-12-10T12:26:10;3.10;99.90
21616;DHT22;10970;48.714;9.584;2022-12-10T12:28:45;3.00;99.90
21616;DHT22;10970;48.714;9.584;2022-12-10T12:31:25;3.00;99.90
21616;DHT22;10970;48.714;9.584;2022-12-10T12:33:59;3.00;99.90
21616;DHT22;10970;48.714;9.584;2022-12-10T12:36:33;3.10;99.90
21616;DHT22;10970;48.714;9.584;2022-12-10T12:41:57;3.10;99.90
21616;DHT22;10970;48.714;9.584;2022-12-10T12:53:09;3.30;99.90
21616;DHT22;10970;48.714;9.584;2022-12-10T13:03:43;3.00;99.90
21616;DHT22;10970;48.714;9.584;2022-12-10T13:06:17;3.10;99.90
21616;DHT22;10970;48.714;9.584;2022-12-10T13:08:48;3.00;99.90
21616;DHT22;10970;48.714;9.584;2022-12-10T13:11:40;3.10;99.90
21616;DHT22;10970;48.714;9.584;2022-12-10T13:22:10;3.00;99.90
21616;DHT22;10970;48.714;9.584;2022-12-10T13:27:16;2.80;99.90
21616;DHT22;10970;48.714;9.584;2022-12-10T13:29:46;2.80;99.90
21616;DHT22;10970;48.714;9.584;2022-12-10T13:32:19;2.80;99.90
21616;DHT22;10970;48.714;9.584;2022-12-10T13:34:46;2.80;99.90
21616;DHT22;10970;48.714;9.584;2022-12-10T13:43:25;2.80;99.90
21616;DHT22;10970;48.714;9.584;2022-12-10T13:48:55;2.70;99.90
21616;DHT22;10970;48.714;9.584;2022-12-10T14:05:22;2.60;99.90
21616;DHT22;10970;48.714;9.584;2022-12-10T14:07:54;2.50;99.90
21616;DHT22;10970;48.714;9.584;2022-12-10T14:10:26;3.20;99.90
21616;DHT22;10970;48.714;9.584;2022-12-10T14:12:54;2.50;99.90
21616;DHT22;10970;48.714;9.584;2022-12-10T14:15:25;2.50;99.90
21616;DHT22;10970;48.714;9.584;2022-12-10T14:18:02;2.40;99.90
21616;DHT22;10970;48.714;9.584;2022-12-10T14:20:30;2.40;99.90
21616;DHT22;10970;48.714;9.584;2022-12-10T14:22:56;2.40;99.90
21616;DHT22;10970;48.714;9.584;2022-12-10T14:25:44;2.30;99.90
21616;DHT22;10970;48.714;9.584;2022-12-10T14:28:14;2.30;99.90
21616;DHT22;10970;48.714;9.584;2022-12-10T14:30:48;2.30;99.90
21616;DHT22;10970;48.714;9.584;2022-12-10T14:33:22;2.30;99.90
21616;DHT22;10970;48.714;9.584;2022-12-10T14:35:50;2.90;99.90
21616;DHT22;10970;48.714;9.584;2022-12-10T14:38:23;2.20;99.90
21616;DHT22;10970;48.714;9.584;2022-12-10T14:40:53;2.20;99.90
21616;DHT22;10970;48.714;9.584;2022-12-10T14:43:22;2.30;99.90
21616;DHT22;10970;48.714;9.584;2022-12-10T14:45:53;2.10;99.90
21616;DHT22;10970;48.714;9.584;2022-12-10T14:48:21;2.10;99.90
21616;DHT22;10970;48.714;9.584;2022-12-10T14:50:47;2.10;99.90
21616;DHT22;10970;48.714;9.584;2022-12-10T14:53:16;2.10;99.90
21616;DHT22;10970;48.714;9.584;2022-12-10T14:55:43;2.10;99.90
21616;DHT22;10970;48.714;9.584;2022-12-10T14:58:15;2.10;99.90
21616;DHT22;10970;48.714;9.584;2022-12-10T15:00:43;2.10;99.90
21616;DHT22;10970;48.714;9.584;2022-12-10T15:03:11;2.10;99.90
21616;DHT22;10970;48.714;9.584;2022-12-10T15:05:39;2.00;99.90
21616;DHT22;10970;48.714;9.584;2022-12-10T15:08:07;2.00;99.90
21616;DHT22;10970;48.714;9.584;2022-12-10T15:10:41;2.00;99.90
21616;DHT22;10970;48.714;9.584;2022-12-10T15:13:17;1.90;99.90
21616;DHT22;10970;48.714;9.584;2022-12-10T15:15:48;1.90;99.90
21616;DHT22;10970;48.714;9.584;2022-12-10T15:18:21;1.90;99.90
21616;DHT22;10970;48.714;9.584;2022-12-10T15:21:39;1.80;99.90
21616;DHT22;10970;48.714;9.584;2022-12-10T15:23:40;1.80;99.90
21616;DHT22;10970;48.714;9.584;2022-12-10T15:26:14;1.80;99.90
21616;DHT22;10970;48.714;9.584;2022-12-10T15:28:41;1.80;99.90
21616;DHT22;10970;48.714;9.584;2022-12-10T15:34:06;1.80;99.90
21616;DHT22;10970;48.714;9.584;2022-12-10T15:41:44;1.70;99.90
21616;DHT22;10970;48.714;9.584;2022-12-10T15:49:34;1.70;99.90
21616;DHT22;10970;48.714;9.584;2022-12-10T15:52:01;1.70;99.90
21616;DHT22;10970;48.714;9.584;2022-12-10T15:54:28;1.70;99.90
21616;DHT22;10970;48.714;9.584;2022-12-10T15:56:56;1.60;99.90
21616;DHT22;10970;48.714;9.584;2022-12-10T15:59:21;1.70;99.90
21616;DHT22;10970;48.714;9.584;2022-12-10T16:01:47;1.70;99.90
21616;DHT22;10970;48.714;9.584;2022-12-10T16:04:13;1.70;99.90
21616;DHT22;10970;48.714;9.584;2022-12-10T16:06:39;1.70;99.90
21616;DHT22;10970;48.714;9.584;2022-12-10T16:09:05;1.60;99.90
21616;DHT22;10970;48.714;9.584;2022-12-10T16:11:31;1.70;99.90
21616;DHT22;10970;48.714;9.584;2022-12-10T16:13:58;1.70;99.90
21616;DHT22;10970;48.714;9.584;2022-12-10T16:16:24;1.60;99.90
21616;DHT22;10970;48.714;9.584;2022-12-10T16:18:50;1.60;99.90
21616;DHT22;10970;48.714;9.584;2022-12-10T16:21:16;1.60;99.90
21616;DHT22;10970;48.714;9.584;2022-12-10T16:23:42;1.60;99.90
21616;DHT22;10970;48.714;9.584;2022-12-10T16:26:17;1.60;99.90
21616;DHT22;10970;48.714;9.584;2022-12-10T16:28:44;1.60;99.90
21616;DHT22;10970;48.714;9.584;2022-12-10T16:31:13;1.60;99.90
21616;DHT22;10970;48.714;9.584;2022-12-10T16:33:40;1.50;99.90
21616;DHT22;10970;48.714;9.584;2022-12-10T16:36:05;1.50;99.90
21616;DHT22;10970;48.714;9.584;2022-12-10T16:38:31;1.50;99.90
21616;DHT22;10970;48.714;9.584;2022-12-10T16:40:58;1.50;99.90
21616;DHT22;10970;48.714;9.584;2022-12-10T16:43:26;1.60;99.90
21616;DHT22;10970;48.714;9.584;2022-12-10T16:45:53;1.50;99.90
21616;DHT22;10970;48.714;9.584;2022-12-10T16:48:20;1.60;99.90
21616;DHT22;10970;48.714;9.584;2022-12-10T16:50:47;1.40;99.90
21616;DHT22;10970;48.714;9.584;2022-12-10T16:53:20;1.40;99.90
21616;DHT22;10970;48.714;9.584;2022-12-10T16:55:49;1.40;99.90
21616;DHT22;10970;48.714;9.584;2022-12-10T16:58:15;1.40;99.90
21616;DHT22;10970;48.714;9.584;2022-12-10T17:00:43;1.40;99.90
21616;DHT22;10970;48.714;9.584;2022-12-10T17:03:11;1.40;99.90
21616;DHT22;10970;48.714;9.584;2022-12-10T17:05:51;1.40;99.90
21616;DHT22;10970;48.714;9.584;2022-12-10T17:08:18;1.40;99.90
21616;DHT22;10970;48.714;9.584;2022-12-10T17:10:44;1.40;99.90
21616;DHT22;10970;48.714;9.584;2022-12-10T17:13:29;1.40;99.90
21616;DHT22;10970;48.714;9.584;2022-12-10T17:15:56;1.40;99.90
21616;DHT22;10970;48.714;9.584;2022-12-10T17:18:23;1.30;99.90
21616;DHT22;10970;48.714;9.584;2022-12-10T17:20:49;1.30;99.90
21616;DHT22;10970;48.714;9.584;2022-12-10T17:23:15;1.30;99.90
21616;DHT22;10970;48.714;9.584;2022-12-10T17:25:42;1.30;99.90
21616;DHT22;10970;48.714;9.584;2022-12-10T17:28:14;1.30;99.90
21616;DHT22;10970;48.714;9.584;2022-12-10T17:30:40;1.30;99.90
21616;DHT22;10970;48.714;9.584;2022-12-10T17:33:06;1.30;99.90
21616;DHT22;10970;48.714;9.584;2022-12-10T17:35:32;1.20;99.90
21616;DHT22;10970;48.714;9.584;2022-12-10T17:37:57;1.20;99.90
21616;DHT22;10970;48.714;9.584;2022-12-10T17:40:23;1.20;99.90
21616;DHT22;10970;48.714;9.584;2022-12-10T17:42:52;1.20;99.90
21616;DHT22;10970;48.714;9.584;2022-12-10T17:45:18;1.20;99.90
21616;DHT22;10970;48.714;9.584;2022-12-10T17:47:45;1.20;99.90
21616;DHT22;10970;48.714;9.584;2022-12-10T17:50:28;1.20;99.90
21616;DHT22;10970;48.714;9.584;2022-12-10T17:52:55;1.20;99.90
21616;DHT22;10970;48.714;9.584;2022-12-10T17:55:23;1.20;99.90
21616;DHT22;10970;48.714;9.584;2022-12-10T17:57:49;1.20;99.90
21616;DHT22;10970;48.714;9.584;2022-12-10T18:00:18;1.10;99.90
21616;DHT22;10970;48.714;9.584;2022-12-10T18:02:44;1.20;99.90
21616;DHT22;10970;48.714;9.584;2022-12-10T18:05:10;1.10;99.90
21616;DHT22;10970;48.714;9.584;2022-12-10T18:07:36;1.00;99.90
21616;DHT22;10970;48.714;9.584;2022-12-10T18:10:04;0.90;99.90
21616;DHT22;10970;48.714;9.584;2022-12-10T18:12:34;1.00;99.90
21616;DHT22;10970;48.714;9.584;2022-12-10T18:14:59;1.00;99.90
21616;DHT22;10970;48.714;9.584;2022-12-10T18:17:25;1.00;99.90
21616;DHT22;10970;48.714;9.584;2022-12-10T18:19:51;1.00;99.90
21616;DHT22;10970;48.714;9.584;2022-12-10T18:22:16;1.00;99.90
21616;DHT22;10970;48.714;9.584;2022-12-10T18:24:42;1.00;99.90
21616;DHT22;10970;48.714;9.584;2022-12-10T18:27:14;1.00;99.90
21616;DHT22;10970;48.714;9.584;2022-12-10T18:29:41;1.00;99.90
21616;DHT22;10970;48.714;9.584;2022-12-10T18:32:10;1.00;99.90